createdAt,value
2022-09-12T00:02:04.834Z,100.00
2022-09-12T00:04:33.443Z,100.00
2022-09-12T00:07:00.353Z,100.00
2022-09-12T00:09:27.513Z,100.00
2022-09-12T00:11:54.609Z,100.00
2022-09-12T00:14:21.349Z,100.00
2022-09-12T00:16:49.661Z,100.00
2022-09-12T00:19:16.276Z,100.00
2022-09-12T00:21:43.860Z,100.00
2022-09-12T00:24:11.034Z,100.00
2022-09-12T00:26:37.808Z,100.00
2022-09-12T00:29:05.173Z,100.00
2022-09-12T00:31:33.563Z,100.00
2022-09-12T00:34:01.762Z,100.00
2022-09-12T00:36:30.504Z,100.00
2022-09-12T00:38:59.316Z,100.00
2022-09-12T00:41:30.109Z,100.00
2022-09-12T00:44:24.260Z,100.00
2022-09-12T00:46:50.977Z,100.00
2022-09-12T00:49:58.954Z,100.00
2022-09-12T00:52:46.161Z,100.00
2022-09-12T00:55:16.971Z,100.00
2022-09-12T00:58:21.335Z,100.00
2022-09-12T01:00:48.197Z,100.00
2022-09-12T01:03:17.418Z,100.00
2022-09-12T01:06:09.860Z,100.00
2022-09-12T01:08:41.122Z,100.00
2022-09-12T01:11:09.841Z,100.00
2022-09-12T01:13:37.116Z,100.00
2022-09-12T01:16:06.063Z,100.00
2022-09-12T01:18:55.654Z,100.00
2022-09-12T01:21:53.019Z,100.00
2022-09-12T01:24:49.566Z,100.00
2022-09-12T01:27:35.268Z,100.00
2022-09-12T01:30:14.491Z,100.00
2022-09-12T01:32:54.852Z,100.00
2022-09-12T01:35:33.167Z,100.00
2022-09-12T01:38:26.743Z,100.00
2022-09-12T01:41:03.996Z,100.00
2022-09-12T01:43:48.099Z,100.00
2022-09-12T01:46:27.341Z,100.00
2022-09-12T01:49:06.982Z,100.00
2022-09-12T01:51:33.783Z,100.00
2022-09-12T01:54:06.927Z,100.00
2022-09-12T01:56:39.076Z,100.00
2022-09-12T01:59:26.884Z,100.00
2022-09-12T02:02:03.869Z,100.00
2022-09-12T02:04:37.307Z,100.00
2022-09-12T02:07:11.173Z,100.00
2022-09-12T02:09:46.895Z,100.00
2022-09-12T02:12:17.929Z,100.00
2022-09-12T02:14:50.231Z,100.00
2022-09-12T02:17:21.043Z,100.00
2022-09-12T02:19:57.613Z,100.00
2022-09-12T02:22:27.868Z,100.00
2022-09-12T02:24:59.416Z,100.00
2022-09-12T02:27:30.201Z,100.00
2022-09-12T02:29:57.219Z,100.00
2022-09-12T02:32:30.784Z,100.00
2022-09-12T02:35:36.872Z,100.00
2022-09-12T02:38:13.255Z,100.00
2022-09-12T02:40:41.008Z,100.00
2022-09-12T02:43:07.764Z,100.00
2022-09-12T02:45:35.945Z,100.00
2022-09-12T02:48:04.908Z,100.00
2022-09-12T02:50:32.335Z,100.00
2022-09-12T02:53:04.349Z,100.00
2022-09-12T02:55:33.600Z,100.00
2022-09-12T02:58:05.446Z,100.00
2022-09-12T03:00:38.103Z,100.00
2022-09-12T03:03:22.404Z,100.00
2022-09-12T03:05:58.290Z,100.00
2022-09-12T03:08:44.413Z,100.00
2022-09-12T03:11:21.200Z,100.00
2022-09-12T03:14:06.769Z,100.00
2022-09-12T03:16:46.719Z,100.00
2022-09-12T03:19:31.190Z,100.00
2022-09-12T03:22:19.327Z,100.00
2022-09-12T03:25:34.594Z,100.00
2022-09-12T03:28:07.626Z,100.00
2022-09-12T03:30:41.081Z,100.00
2022-09-12T03:33:12.030Z,100.00
2022-09-12T03:35:39.063Z,100.00
2022-09-12T03:38:08.035Z,100.00
2022-09-12T03:40:35.797Z,100.00
2022-09-12T03:43:03.261Z,100.00
2022-09-12T03:45:30.316Z,100.00
2022-09-12T03:47:57.903Z,100.00
2022-09-12T03:50:25.646Z,100.00
2022-09-12T03:52:52.444Z,100.00
2022-09-12T03:55:20.163Z,100.00
2022-09-12T03:57:48.348Z,100.00
2022-09-12T04:00:19.841Z,100.00
2022-09-12T04:02:48.871Z,100.00
2022-09-12T04:05:16.568Z,100.00
2022-09-12T04:07:44.084Z,100.00
2022-09-12T04:10:11.139Z,100.00
2022-09-12T04:12:39.557Z,100.00
2022-09-12T04:15:07.764Z,100.00
2022-09-12T04:17:35.520Z,100.00
2022-09-12T04:20:02.749Z,100.00
2022-09-12T04:22:31.928Z,100.00
2022-09-12T04:24:59.839Z,100.00
2022-09-12T04:27:27.417Z,100.00
2022-09-12T04:29:55.998Z,100.00
2022-09-12T04:32:24.387Z,100.00
2022-09-12T04:34:52.671Z,100.00
2022-09-12T04:37:20.545Z,100.00
2022-09-12T04:39:49.034Z,100.00
2022-09-12T04:42:16.343Z,100.00
2022-09-12T04:44:43.505Z,100.00
2022-09-12T04:47:10.290Z,100.00
2022-09-12T04:49:37.671Z,100.00
2022-09-12T04:52:04.948Z,100.00
2022-09-12T04:54:34.272Z,100.00
2022-09-12T04:57:02.027Z,100.00
2022-09-12T04:59:30.607Z,100.00
2022-09-12T05:01:58.476Z,100.00
2022-09-12T05:04:25.728Z,100.00
2022-09-12T05:06:53.108Z,100.00
2022-09-12T05:09:19.799Z,100.00
2022-09-12T05:12:04.711Z,100.00
2022-09-12T05:14:33.808Z,100.00
2022-09-12T05:17:01.826Z,100.00
2022-09-12T05:19:30.352Z,100.00
2022-09-12T05:21:57.477Z,100.00
2022-09-12T05:24:25.031Z,100.00
2022-09-12T05:26:52.986Z,100.00
2022-09-12T05:29:20.281Z,100.00
2022-09-12T05:31:50.135Z,100.00
2022-09-12T05:34:19.190Z,100.00
2022-09-12T05:36:45.943Z,100.00
2022-09-12T05:39:12.755Z,100.00
2022-09-12T05:41:39.646Z,100.00
2022-09-12T05:44:07.376Z,100.00
2022-09-12T05:46:40.148Z,100.00
2022-09-12T05:49:09.900Z,100.00
2022-09-12T05:51:39.257Z,100.00
2022-09-12T05:54:07.807Z,100.00
2022-09-12T05:56:40.826Z,100.00
2022-09-12T05:59:13.240Z,100.00
2022-09-12T06:01:42.193Z,100.00
2022-09-12T06:04:11.214Z,100.00
2022-09-12T06:06:45.226Z,100.00
2022-09-12T06:09:15.282Z,100.00
2022-09-12T06:11:43.368Z,100.00
2022-09-12T06:14:11.980Z,100.00
2022-09-12T06:16:39.575Z,100.00
2022-09-12T06:19:18.390Z,100.00
2022-09-12T06:21:45.630Z,100.00
2022-09-12T06:24:13.254Z,100.00
2022-09-12T06:26:40.203Z,100.00
2022-09-12T06:29:08.462Z,100.00
2022-09-12T06:31:36.838Z,100.00
2022-09-12T06:34:05.810Z,100.00
2022-09-12T06:36:38.975Z,100.00
2022-09-12T06:39:11.755Z,100.00
2022-09-12T06:41:44.041Z,100.00
2022-09-12T06:44:17.124Z,100.00
2022-09-12T06:46:44.419Z,100.00
2022-09-12T06:49:11.349Z,100.00
2022-09-12T06:51:38.711Z,100.00
2022-09-12T06:54:06.257Z,100.00
2022-09-12T06:56:33.604Z,100.00
2022-09-12T06:59:03.375Z,100.00
2022-09-12T07:01:33.306Z,100.00
2022-09-12T07:04:02.482Z,100.00
2022-09-12T07:06:35.451Z,100.00
2022-09-12T07:09:03.842Z,100.00
2022-09-12T07:11:36.531Z,100.00
2022-09-12T07:14:04.766Z,100.00
2022-09-12T07:16:32.102Z,100.00
2022-09-12T07:19:02.955Z,100.00
2022-09-12T07:21:31.071Z,100.00
2022-09-12T07:23:58.114Z,100.00
2022-09-12T07:26:26.922Z,100.00
2022-09-12T07:28:54.748Z,100.00
2022-09-12T07:31:26.916Z,100.00
2022-09-12T07:33:56.342Z,100.00
2022-09-12T07:36:25.490Z,100.00
2022-09-12T07:38:57.613Z,100.00
2022-09-12T07:41:26.949Z,100.00
2022-09-12T07:43:55.251Z,100.00
2022-09-12T07:46:27.847Z,100.00
2022-09-12T07:48:56.590Z,100.00
2022-09-12T07:51:24.416Z,100.00
2022-09-12T07:53:52.447Z,100.00
2022-09-12T07:56:32.717Z,100.00
2022-09-12T07:59:05.819Z,100.00
2022-09-12T08:02:14.691Z,100.00
2022-09-12T08:13:17.629Z,100.00
2022-09-12T08:24:21.160Z,96.86
2022-09-12T08:34:36.391Z,97.89
2022-09-12T08:38:08.826Z,94.25
2022-09-12T08:41:35.059Z,93.26
2022-09-12T08:44:53.259Z,90.11
2022-09-12T08:47:57.381Z,88.54
2022-09-12T08:50:24.385Z,89.88
2022-09-12T08:53:21.093Z,88.10
2022-09-12T08:56:44.984Z,87.53
2022-09-12T09:00:01.724Z,85.63
2022-09-12T09:02:53.283Z,89.38
2022-09-12T09:06:09.228Z,84.77
2022-09-12T09:09:07.658Z,85.22
2022-09-12T09:18:40.650Z,84.62
2022-09-12T09:21:43.918Z,83.96
2022-09-12T09:24:27.555Z,83.16
2022-09-12T09:27:40.611Z,85.91
2022-09-12T09:30:28.859Z,84.94
2022-09-12T09:33:22.341Z,82.70
2022-09-12T09:36:25.306Z,81.70
2022-09-12T09:39:24.199Z,80.33
2022-09-12T09:42:09.726Z,83.94
2022-09-12T09:44:54.604Z,82.52
2022-09-12T09:47:52.983Z,80.25
2022-09-12T09:50:25.008Z,78.16
2022-09-12T09:53:00.446Z,74.05
2022-09-12T09:55:34.170Z,72.60
2022-09-12T09:58:04.263Z,69.52
2022-09-12T10:00:36.981Z,74.92
2022-09-12T10:03:13.914Z,70.06
2022-09-12T10:05:50.903Z,65.78
2022-09-12T10:08:26.931Z,64.27
2022-09-12T10:11:16.142Z,65.23
2022-09-12T10:13:57.748Z,62.58
2022-09-12T10:16:32.864Z,59.32
2022-09-12T10:19:02.074Z,59.83
2022-09-12T10:21:50.703Z,57.44
2022-09-12T10:24:33.685Z,57.67
2022-09-12T10:27:15.155Z,56.84
2022-09-12T10:30:17.919Z,56.07
2022-09-12T10:32:48.726Z,55.68
2022-09-12T10:35:30.983Z,52.95
2022-09-12T10:38:25.544Z,55.01
2022-09-12T10:41:03.536Z,51.63
2022-09-12T10:43:33.740Z,52.56
2022-09-12T10:46:16.336Z,50.96
2022-09-12T10:48:44.191Z,53.04
2022-09-12T10:51:26.116Z,49.98
2022-09-12T10:53:54.411Z,51.00
2022-09-12T10:56:23.636Z,48.60
2022-09-12T10:59:28.614Z,47.06
2022-09-12T11:02:00.981Z,46.51
2022-09-12T11:04:46.446Z,46.79
2022-09-12T11:24:09.501Z,44.75
2022-09-12T11:26:51.187Z,42.61
2022-09-12T11:29:47.384Z,41.37
2022-09-12T11:32:50.179Z,40.74
2022-09-12T11:35:55.515Z,42.30
2022-09-12T11:38:51.483Z,42.06
2022-09-12T11:41:21.287Z,42.93
2022-09-12T11:44:12.186Z,43.06
2022-09-12T11:46:47.680Z,42.77
2022-09-12T11:49:35.975Z,39.32
2022-09-12T11:52:12.133Z,43.46
2022-09-12T11:54:56.270Z,43.38
2022-09-12T11:57:34.384Z,42.88
2022-09-12T12:00:18.296Z,43.53
2022-09-12T12:03:07.907Z,44.36
2022-09-12T12:05:51.209Z,41.97
2022-09-12T12:08:22.882Z,40.70
2022-09-12T12:11:03.137Z,39.40
2022-09-12T12:13:46.243Z,38.76
2022-09-12T12:16:22.252Z,37.29
2022-09-12T12:19:00.554Z,38.79
2022-09-12T12:21:46.928Z,41.66
2022-09-12T12:24:17.599Z,41.89
2022-09-12T12:40:03.492Z,44.29
2022-09-12T12:49:27.654Z,46.31
2022-09-12T12:52:18.352Z,46.28
2022-09-12T12:54:46.256Z,48.15
2022-09-12T12:57:13.509Z,47.61
2022-09-12T12:59:54.046Z,48.65
2022-09-12T13:02:25.919Z,48.70
2022-09-12T13:04:54.769Z,49.58
2022-09-12T13:07:31.183Z,48.68
2022-09-12T13:09:59.543Z,48.93
2022-09-12T13:12:31.161Z,51.45
2022-09-12T13:14:59.847Z,49.50
2022-09-12T13:17:47.542Z,49.09
2022-09-12T13:20:29.421Z,48.17
2022-09-12T13:22:57.429Z,48.80
2022-09-12T13:25:35.862Z,46.53
2022-09-12T13:28:12.311Z,47.35
2022-09-12T13:30:41.592Z,48.27
2022-09-12T13:33:23.498Z,51.39
2022-09-12T13:36:04.720Z,50.73
2022-09-12T13:38:51.735Z,51.54
2022-09-12T13:41:37.131Z,51.59
2022-09-12T13:44:03.723Z,51.35
2022-09-12T13:46:33.938Z,51.66
2022-09-12T13:49:17.888Z,52.18
2022-09-12T13:51:44.669Z,49.68
2022-09-12T13:54:22.517Z,53.54
2022-09-12T14:14:28.262Z,50.09
2022-09-12T14:16:56.261Z,50.60
2022-09-12T14:19:26.056Z,48.39
2022-09-12T14:21:54.615Z,50.89
2022-09-12T14:24:26.053Z,50.93
2022-09-12T14:26:54.307Z,51.79
2022-09-12T14:29:23.898Z,51.29
2022-09-12T14:32:02.535Z,52.65
2022-09-12T14:34:31.306Z,53.20
2022-09-12T14:36:58.963Z,51.79
2022-09-12T14:39:32.832Z,51.27
2022-09-12T14:42:08.140Z,50.89
2022-09-12T14:44:36.352Z,52.41
2022-09-12T14:47:21.510Z,51.41
2022-09-12T14:49:51.614Z,51.40
2022-09-12T14:52:40.070Z,52.05
2022-09-12T14:55:18.800Z,53.27
2022-09-12T14:57:45.908Z,53.15
2022-09-12T15:00:13.254Z,51.05
2022-09-12T15:02:43.381Z,50.46
2022-09-12T15:05:23.982Z,50.97
2022-09-12T15:07:53.812Z,52.21
2022-09-12T15:10:35.367Z,50.66
2022-09-12T15:13:11.886Z,49.79
2022-09-12T15:15:40.437Z,48.59
2022-09-12T15:18:09.631Z,50.62
2022-09-12T15:20:38.999Z,49.68
2022-09-12T15:23:08.949Z,52.52
2022-09-12T15:25:36.197Z,49.14
2022-09-12T15:28:19.418Z,49.88
2022-09-12T15:30:49.416Z,46.51
2022-09-12T15:33:18.221Z,49.38
2022-09-12T15:35:46.086Z,49.34
2022-09-12T15:38:12.984Z,48.92
2022-09-12T15:40:41.127Z,48.82
2022-09-12T15:43:12.864Z,50.46
2022-09-12T15:45:42.385Z,49.71
2022-09-12T15:48:10.235Z,48.98
2022-09-12T15:50:39.058Z,49.62
2022-09-12T15:53:07.077Z,51.19
2022-09-12T15:55:34.312Z,49.38
2022-09-12T15:58:06.328Z,50.86
2022-09-12T16:00:35.568Z,49.83
2022-09-12T16:03:04.724Z,50.44
2022-09-12T16:05:34.406Z,48.98
2022-09-12T16:08:03.452Z,49.87
2022-09-12T16:10:33.166Z,50.12
2022-09-12T16:13:04.240Z,51.16
2022-09-12T16:15:33.706Z,50.70
2022-09-12T16:18:00.926Z,51.32
2022-09-12T16:20:29.454Z,50.71
2022-09-12T16:22:57.690Z,50.88
2022-09-12T16:25:26.974Z,50.56
2022-09-12T16:27:53.847Z,51.99
2022-09-12T16:30:21.648Z,52.74
2022-09-12T16:32:48.373Z,52.45
2022-09-12T16:35:15.781Z,53.22
2022-09-12T16:37:42.536Z,53.01
2022-09-12T16:40:15.808Z,52.60
2022-09-12T16:42:43.882Z,53.41
2022-09-12T16:45:14.045Z,53.38
2022-09-12T16:47:42.232Z,55.08
2022-09-12T16:50:10.010Z,56.65
2022-09-12T16:52:39.825Z,58.44
2022-09-12T16:55:10.058Z,57.48
2022-09-12T16:57:37.651Z,60.20
2022-09-12T17:00:08.416Z,61.59
2022-09-12T17:02:37.306Z,62.83
2022-09-12T17:05:04.870Z,63.29
2022-09-12T17:07:31.993Z,64.23
2022-09-12T17:09:59.754Z,65.69
2022-09-12T17:12:28.330Z,66.46
2022-09-12T17:14:58.670Z,67.52
2022-09-12T17:17:25.973Z,68.87
2022-09-12T17:19:53.915Z,69.66
2022-09-12T17:22:20.926Z,71.26
2022-09-12T17:24:47.760Z,72.42
2022-09-12T17:27:15.664Z,74.85
2022-09-12T17:29:42.332Z,75.80
2022-09-12T17:32:14.382Z,76.98
2022-09-12T17:34:44.994Z,77.42
2022-09-12T17:37:13.570Z,78.21
2022-09-12T17:39:42.779Z,79.02
2022-09-12T17:42:09.795Z,79.44
2022-09-12T17:44:50.449Z,80.36
2022-09-12T17:47:17.288Z,80.24
2022-09-12T17:49:45.661Z,80.89
2022-09-12T17:52:13.312Z,81.13
2022-09-12T17:54:40.195Z,81.30
2022-09-12T17:57:08.265Z,82.66
2022-09-12T17:59:38.020Z,83.67
2022-09-12T18:02:16.273Z,84.32
2022-09-12T18:04:45.986Z,84.88
2022-09-12T18:07:18.177Z,84.84
2022-09-12T18:09:47.794Z,85.11
2022-09-12T18:12:19.953Z,85.93
2022-09-12T18:14:47.902Z,86.34
2022-09-12T18:17:15.889Z,86.06
2022-09-12T18:19:44.538Z,86.99
2022-09-12T18:22:12.895Z,87.34
2022-09-12T18:24:43.910Z,87.72
2022-09-12T18:27:12.040Z,88.41
2022-09-12T18:29:40.176Z,89.01
2022-09-12T18:32:09.946Z,90.13
2022-09-12T18:34:38.785Z,90.06
2022-09-12T18:37:08.025Z,90.24
2022-09-12T18:39:37.978Z,90.51
2022-09-12T18:42:06.506Z,90.91
2022-09-12T18:44:51.980Z,91.37
2022-09-12T18:47:38.498Z,91.47
2022-09-12T18:50:06.532Z,92.13
2022-09-12T18:52:33.018Z,92.25
2022-09-12T18:54:59.580Z,92.77
2022-09-12T18:57:26.101Z,93.06
2022-09-12T18:59:53.120Z,93.89
2022-09-12T19:02:19.767Z,93.75
2022-09-12T19:04:46.620Z,93.89
2022-09-12T19:07:14.282Z,94.55
2022-09-12T19:09:43.302Z,94.38
2022-09-12T19:12:11.783Z,94.83
2022-09-12T19:14:40.569Z,94.92
2022-09-12T19:17:07.966Z,95.45
2022-09-12T19:19:40.368Z,95.60
2022-09-12T19:22:11.236Z,95.15
2022-09-12T19:24:38.547Z,95.40
2022-09-12T19:27:07.713Z,95.38
2022-09-12T19:29:36.580Z,95.53
2022-09-12T19:32:03.691Z,96.25
2022-09-12T19:34:33.314Z,95.67
2022-09-12T19:37:00.484Z,96.02
2022-09-12T19:39:28.879Z,95.77
2022-09-12T19:41:58.642Z,96.03
2022-09-12T19:44:27.536Z,96.03
2022-09-12T19:46:56.353Z,95.96
2022-09-12T19:49:24.817Z,95.46
2022-09-12T19:51:51.649Z,95.91
2022-09-12T19:54:18.628Z,96.02
2022-09-12T19:56:45.863Z,96.00
2022-09-12T19:59:14.621Z,95.17
2022-09-12T20:01:41.970Z,95.14
2022-09-12T20:04:10.919Z,94.85
2022-09-12T20:06:39.983Z,93.92
2022-09-12T20:09:07.574Z,93.98
2022-09-12T20:11:34.543Z,93.63
2022-09-12T20:14:02.699Z,94.12
2022-09-12T20:16:33.396Z,94.60
2022-09-12T20:19:07.589Z,95.13
2022-09-12T20:21:37.896Z,95.99
2022-09-12T20:24:08.388Z,97.18
2022-09-12T20:26:35.997Z,97.71
2022-09-12T20:29:05.971Z,97.71
2022-09-12T20:31:37.834Z,97.43
2022-09-12T20:34:06.924Z,97.58
2022-09-12T20:36:36.467Z,98.00
2022-09-12T20:39:06.094Z,97.61
2022-09-12T20:41:34.463Z,98.70
2022-09-12T20:44:03.917Z,98.90
2022-09-12T20:46:33.540Z,99.14
2022-09-12T20:49:00.241Z,99.80
2022-09-12T20:51:30.406Z,100.00
2022-09-12T20:54:00.431Z,100.00
2022-09-12T20:56:28.431Z,100.00
2022-09-12T20:58:56.065Z,100.00
2022-09-12T21:01:24.688Z,100.00
2022-09-12T21:03:52.772Z,100.00
2022-09-12T21:06:20.762Z,99.14
2022-09-12T21:08:50.059Z,99.56
2022-09-12T21:11:18.631Z,100.00
2022-09-12T21:13:48.063Z,99.78
2022-09-12T21:16:17.324Z,99.88
2022-09-12T21:18:44.776Z,100.00
2022-09-12T21:21:14.911Z,99.86
2022-09-12T21:23:42.419Z,99.48
2022-09-12T21:26:10.090Z,98.66
2022-09-12T21:28:39.462Z,98.41
2022-09-12T21:31:07.421Z,98.96
2022-09-12T21:33:36.362Z,99.24
2022-09-12T21:36:07.007Z,98.72
2022-09-12T21:38:37.360Z,99.20
2022-09-12T21:41:08.427Z,98.62
2022-09-12T21:43:35.816Z,99.47
2022-09-12T21:46:04.312Z,98.14
2022-09-12T21:48:32.338Z,98.03
2022-09-12T21:50:59.807Z,97.51
2022-09-12T21:53:28.542Z,97.78
2022-09-12T21:56:05.270Z,98.21
2022-09-12T21:58:32.706Z,98.26
2022-09-12T22:01:01.437Z,98.47
2022-09-12T22:03:29.625Z,98.38
2022-09-12T22:06:00.538Z,98.44
2022-09-12T22:08:34.202Z,99.11
2022-09-12T22:11:03.674Z,98.80
2022-09-12T22:13:32.430Z,98.96
2022-09-12T22:16:00.625Z,99.05
2022-09-12T22:18:29.392Z,98.86
2022-09-12T22:21:12.460Z,100.00
2022-09-12T22:23:59.719Z,99.38
2022-09-12T22:26:28.402Z,99.28
2022-09-12T22:28:57.372Z,99.63
2022-09-12T22:31:27.071Z,99.45
2022-09-12T22:33:57.041Z,99.36
2022-09-12T22:36:31.146Z,99.32
2022-09-12T22:38:59.860Z,99.21
2022-09-12T22:41:26.602Z,98.46
2022-09-12T22:43:53.379Z,99.57
2022-09-12T22:46:21.207Z,99.83
2022-09-12T22:48:48.137Z,100.00
2022-09-12T22:51:15.320Z,100.00
2022-09-12T22:53:42.626Z,100.00
2022-09-12T22:56:09.800Z,100.00
2022-09-12T22:58:37.384Z,100.00
2022-09-12T23:01:08.046Z,100.00
2022-09-12T23:03:36.953Z,100.00
2022-09-12T23:06:07.018Z,100.00
2022-09-12T23:08:36.102Z,100.00
2022-09-12T23:11:14.833Z,100.00
2022-09-12T23:13:43.141Z,100.00
2022-09-12T23:16:14.759Z,100.00
2022-09-12T23:18:41.550Z,100.00
2022-09-12T23:21:10.049Z,99.88
2022-09-12T23:23:39.447Z,100.00
2022-09-12T23:26:10.882Z,100.00
2022-09-12T23:28:39.568Z,99.70
2022-09-12T23:31:07.496Z,99.04
2022-09-12T23:33:34.340Z,98.96
2022-09-12T23:36:02.403Z,98.60
2022-09-12T23:38:30.332Z,100.00
2022-09-12T23:40:58.378Z,100.00
2022-09-12T23:43:26.785Z,99.78
2022-09-12T23:45:53.511Z,99.82
2022-09-12T23:48:20.526Z,100.00
2022-09-12T23:50:48.338Z,100.00
2022-09-12T23:53:17.602Z,100.00
2022-09-12T23:55:45.859Z,100.00
2022-09-12T23:58:13.381Z,100.00
